Time;durP1;ratioP1;P1;durP2;ratioP2;P2;SDS_P1;SDS_P2;PMS_P1;PMS_P2;Temp;Humidity;BMP_temperature;BMP_pressure;BME280_temperature;BME280_humidity;BME280_pressure;Samples;Min_cycle;Max_cycle;Signal;HPM_P1;HPM_P2
2024/03/11 00:02:30;;;;;;;22.88;5.45;;;;;;;;;;5050459;28;20512;-73
2024/03/11 00:05:35;;;;;;;30.02;7.18;;;;;;;;;;5050785;28;20397;-73
2024/03/11 00:08:40;;;;;;;29.48;5.75;;;;;;;;;;5054973;28;20055;-72
2024/03/11 00:11:56;;;;;;;25.92;5.45;;;;;;;;;;5053682;28;20040;-72
2024/03/11 00:15:01;;;;;;;23.35;4.97;;;;;;;;;;5054758;28;20048;-72
2024/03/11 00:18:07;;;;;;;29.83;6.35;;;;;;;;;;5054624;28;20044;-72
2024/03/11 00:21:11;;;;;;;21.50;4.60;;;;;;;;;;5054128;28;20048;-72
2024/03/11 00:24:16;;;;;;;32.05;5.88;;;;;;;;;;5054337;28;20543;-72
2024/03/11 00:27:21;;;;;;;28.55;6.55;;;;;;;;;;5054392;28;20064;-72
2024/03/11 00:30:25;;;;;;;29.98;5.70;;;;;;;;;;5054428;28;20048;-72
2024/03/11 00:33:30;;;;;;;27.40;5.85;;;;;;;;;;5054160;28;20055;-72
2024/03/11 00:36:34;;;;;;;27.50;7.18;;;;;;;;;;5054476;28;20056;-72
2024/03/11 00:39:38;;;;;;;29.08;6.90;;;;;;;;;;5054405;28;20511;-72
2024/03/11 00:42:43;;;;;;;28.20;6.63;;;;;;;;;;5053455;28;20052;-72
2024/03/11 00:45:47;;;;;;;28.92;5.70;;;;;;;;;;5054363;28;20044;-72
2024/03/11 00:48:52;;;;;;;27.45;6.18;;;;;;;;;;5054329;28;20052;-72
2024/03/11 00:51:56;;;;;;;21.33;6.30;;;;;;;;;;5053468;28;20048;-72
2024/03/11 00:55:01;;;;;;;25.70;6.53;;;;;;;;;;5054179;28;20507;-72
2024/03/11 00:58:06;;;;;;;29.15;5.53;;;;;;;;;;5053912;28;20040;-72
2024/03/11 01:01:10;;;;;;;22.05;4.78;;;;;;;;;;5054070;28;20064;-72
2024/03/11 01:04:15;;;;;;;20.42;4.40;;;;;;;;;;5053088;28;20056;-72
2024/03/11 01:07:20;;;;;;;20.63;4.28;;;15.90;99.90;;;;;;5053965;28;20102;-72
2024/03/11 01:10:25;;;;;;;20.90;4.85;;;;;;;;;;5052689;28;20044;-71
2024/03/11 01:13:29;;;;;;;17.10;5.03;;;;;;;;;;5053280;28;20048;-72
2024/03/11 01:16:37;;;;;;;20.15;5.07;;;;;;;;;;5053590;28;20151;-71
2024/03/11 01:19:41;;;;;;;19.23;5.22;;;;;;;;;;5052702;28;20052;-71
2024/03/11 01:22:45;;;;;;;26.33;7.25;;;;;;;;;;5053620;28;20056;-72
2024/03/11 01:25:49;;;;;;;19.88;4.00;;;;;;;;;;5054144;28;20199;-72
2024/03/11 01:28:54;;;;;;;15.35;3.17;;;;;;;;;;5053675;28;20488;-72
2024/03/11 01:31:58;;;;;;;15.15;3.30;;;;;;;;;;5053406;28;20040;-72
2024/03/11 01:35:03;;;;;;;7.53;2.35;;;;;;;;;;5053047;28;20048;-71
2024/03/11 01:38:11;;;;;;;9.50;1.90;;;14.10;99.90;;;;;;5053474;28;20037;-71
2024/03/11 01:41:19;;;;;;;9.10;2.35;;;14.10;99.90;;;;;;5041046;28;20504;-71
2024/03/11 01:44:23;;;;;;;11.63;2.28;;;;;;;;;;5052970;28;20055;-71
2024/03/11 01:47:28;;;;;;;4.40;1.20;;;;;;;;;;5053136;28;20052;-71
2024/03/11 01:50:33;;;;;;;4.47;1.10;;;;;;;;;;5053105;28;20481;-71
2024/03/11 01:53:37;;;;;;;5.57;1.58;;;;;;;;;;5052664;28;20049;-71
2024/03/11 01:56:41;;;;;;;7.63;1.50;;;;;;;;;;5052687;28;20029;-71
2024/03/11 01:59:46;;;;;;;7.50;1.30;;;;;;;;;;5052696;28;20371;-71
2024/03/11 02:02:53;;;;;;;8.75;1.63;;;13.90;99.90;;;;;;5052498;28;20041;-71
2024/03/11 02:05:58;;;;;;;7.50;1.63;;;;;;;;;;5052729;28;20051;-72
2024/03/11 02:09:04;;;;;;;8.82;1.27;;;;;;;;;;5052717;28;20033;-72
2024/03/11 02:12:12;;;;;;;7.55;2.03;;;;;;;;;;5052467;28;20477;-72
2024/03/11 02:15:17;;;;;;;3.60;1.35;;;;;;;;;;5052683;28;20053;-72
2024/03/11 02:18:22;;;;;;;6.68;1.38;;;;;;;;;;5052440;28;20033;-71
2024/03/11 02:21:27;;;;;;;6.40;1.20;;;;;;;;;;5052668;28;20037;-72
2024/03/11 02:24:31;;;;;;;8.45;1.30;;;;;;;;;;5052473;28;20033;-71
2024/03/11 02:27:35;;;;;;;8.25;1.70;;;;;;;;;;5052478;28;20033;-72
2024/03/11 02:30:40;;;;;;;5.72;1.70;;;;;;;;;;5052275;28;20037;-71
2024/03/11 02:33:45;;;;;;;7.03;1.45;;;;;;;;;;5052233;28;20041;-71
2024/03/11 02:36:50;;;;;;;7.22;1.38;;;13.20;99.90;;;;;;5052248;28;20036;-71
2024/03/11 02:39:55;;;;;;;7.30;1.50;;;;;;;;;;5052167;28;20044;-71
2024/03/11 02:43:00;;;;;;;5.57;1.20;;;;;;;;;;5052205;28;20041;-71
2024/03/11 02:46:04;;;;;;;4.00;1.00;;;;;;;;;;5052151;28;20040;-72
2024/03/11 02:49:09;;;;;;;4.82;1.27;;;13.20;99.90;;;;;;5052139;28;20366;-71
2024/03/11 02:52:13;;;;;;;2.35;0.82;;;;;;;;;;5051738;28;20040;-71
2024/03/11 02:55:21;;;;;;;4.38;1.20;;;;;;;;;;5051613;28;20041;-71
2024/03/11 02:58:28;;;;;;;6.60;1.00;;;;;;;;;;5051897;28;20037;-71
2024/03/11 03:01:33;;;;;;;5.00;1.20;;;;;;;;;;5051581;28;20370;-71
2024/03/11 03:04:40;;;;;;;6.35;1.23;;;;;;;;;;5051514;28;20052;-71
2024/03/11 03:07:44;;;;;;;6.05;1.35;;;;;;;;;;5051357;28;20033;-70
2024/03/11 03:10:48;;;;;;;6.65;1.10;;;;;;;;;;5051412;28;20509;-73
2024/03/11 03:13:53;;;;;;;9.02;1.35;;;;;;;;;;5051401;28;20045;-73
2024/03/11 03:16:58;;;;;;;6.57;1.35;;;13.00;99.90;;;;;;5051666;28;20029;-71
2024/03/11 03:20:05;;;;;;;4.78;1.05;;;;;;;;;;5051354;28;20074;-73
2024/03/11 03:23:09;;;;;;;5.40;1.10;;;;;;;;;;5050407;28;20041;-73
2024/03/11 03:26:13;;;;;;;6.93;1.00;;;;;;;;;;5051402;28;20041;-73
2024/03/11 03:29:18;;;;;;;4.35;1.00;;;;;;;;;;5050472;28;20045;-72
2024/03/11 03:32:23;;;;;;;6.50;1.20;;;;;;;;;;5051221;28;20037;-72
2024/03/11 03:35:28;;;;;;;7.95;1.73;;;;;;;;;;5050962;28;20053;-72
2024/03/11 03:38:32;;;;;;;5.15;1.27;;;;;;;;;;5051063;28;20036;-72
2024/03/11 03:41:36;;;;;;;3.88;1.55;;;;;;;;;;5050028;28;20029;-72
2024/03/11 03:44:40;;;;;;;7.50;1.50;;;;;;;;;;5050797;28;20375;-72
2024/03/11 03:47:45;;;;;;;5.60;2.33;;;12.90;99.90;;;;;;5050542;28;20036;-72
2024/03/11 03:50:50;;;;;;;8.13;2.22;;;;;;;;;;5050881;28;20239;-73
2024/03/11 03:53:56;;;;;;;9.10;2.42;;;;;;;;;;5049648;28;20147;-72
2024/03/11 03:57:01;;;;;;;10.25;2.90;;;;;;;;;;5050946;28;20044;-73
2024/03/11 04:00:27;;;;;;;8.23;2.15;;;13.00;99.90;;;;;;5050956;28;20044;-72
2024/03/11 04:03:34;;;;;;;9.68;1.92;;;;;;;;;;5049413;28;20064;-72
2024/03/11 04:06:38;;;;;;;8.40;2.38;;;;;;;;;;5050916;28;20033;-72
2024/03/11 04:09:42;;;;;;;5.03;1.30;;;;;;;;;;5050855;28;20037;-72
2024/03/11 04:12:48;;;;;;;8.48;1.50;;;12.80;99.90;;;;;;5049508;28;20032;-72
2024/03/11 04:15:56;;;;;;;5.72;1.33;;;13.00;99.90;;;;;;5049945;28;20052;-72
2024/03/11 04:19:02;;;;;;;4.55;1.30;;;;;;;;;;5050604;28;20048;-72
2024/03/11 04:22:07;;;;;;;7.30;1.30;;;;;;;;;;5049843;28;20461;-72
2024/03/11 04:25:16;;;;;;;6.93;1.48;;;12.70;99.90;;;;;;5050268;28;20369;-72
2024/03/11 04:28:21;;;;;;;8.38;1.73;;;;;;;;;;5050643;28;20048;-72
2024/03/11 04:31:26;;;;;;;5.40;1.40;;;;;;;;;;5049791;28;20369;-71
2024/03/11 04:34:32;;;;;;;11.23;2.20;;;;;;;;;;5050148;28;20045;-72
2024/03/11 04:37:38;;;;;;;6.88;1.60;;;;;;;;;;5050175;28;20044;-72
2024/03/11 04:40:47;;;;;;;4.97;1.10;;;12.80;99.90;;;;;;5049562;28;20405;-72
2024/03/11 04:43:51;;;;;;;5.35;1.25;;;;;;;;;;5050092;28;20043;-72
2024/03/11 04:46:55;;;;;;;4.93;1.63;;;;;;;;;;5050121;28;20037;-72
2024/03/11 04:50:00;;;;;;;6.15;1.08;;;;;;;;;;5050168;28;20029;-72
2024/03/11 04:53:05;;;;;;;2.50;0.93;;;12.90;99.90;;;;;;5051760;28;20041;-72
2024/03/11 04:56:09;;;;;;;6.20;1.20;;;;;;;;;;5054072;28;20378;-72
2024/03/11 04:59:14;;;;;;;2.10;0.90;;;;;;;;;;5053769;28;20037;-72
2024/03/11 05:02:18;;;;;;;7.40;1.30;;;;;;;;;;5053546;28;20045;-71
2024/03/11 05:05:22;;;;;;;7.35;1.20;;;;;;;;;;5053635;28;20032;-72
2024/03/11 05:08:26;;;;;;;5.53;1.23;;;11.70;99.90;;;;;;5053684;28;20032;-71
2024/03/11 05:11:31;;;;;;;5.63;1.40;;;;;;;;;;5053685;28;20056;-71
2024/03/11 05:14:38;;;;;;;6.15;1.15;;;11.90;99.90;;;;;;5053337;28;20044;-72
2024/03/11 05:17:41;;;;;;;3.78;0.90;;;12.10;99.90;;;;;;5053558;28;20040;-72
2024/03/11 05:20:46;;;;;;;3.83;0.82;;;12.60;99.90;;;;;;5053396;28;20048;-72
2024/03/11 05:23:50;;;;;;;3.38;1.30;;;12.50;99.90;;;;;;5053297;28;20056;-72
2024/03/11 05:26:54;;;;;;;6.95;1.90;;;12.50;99.90;;;;;;5053122;28;20044;-71
2024/03/11 05:29:58;;;;;;;3.22;1.55;;;12.40;99.90;;;;;;5053302;28;20501;-71
2024/03/11 05:33:02;;;;;;;3.72;1.20;;;12.70;99.90;;;;;;5052935;28;20044;-71
2024/03/11 05:36:06;;;;;;;4.22;1.20;;;12.40;99.90;;;;;;5053240;28;20060;-71
2024/03/11 05:39:10;;;;;;;2.85;1.10;;;12.30;99.90;;;;;;5053259;28;20036;-71
2024/03/11 05:42:14;;;;;;;5.28;2.00;;;12.30;99.90;;;;;;5053269;28;20043;-72
2024/03/11 05:45:18;;;;;;;3.72;1.00;;;12.40;99.90;;;;;;5053104;28;20044;-71
2024/03/11 05:48:22;;;;;;;2.95;1.20;;;12.10;99.90;;;;;;5052381;28;20040;-71
2024/03/11 05:51:28;;;;;;;6.43;1.42;;;12.20;99.90;;;;;;5053208;28;20366;-72
2024/03/11 05:54:33;;;;;;;2.78;0.93;;;12.20;99.90;;;;;;5052665;28;20056;-72
2024/03/11 05:57:37;;;;;;;1.88;1.05;;;12.30;99.90;;;;;;5052608;28;20040;-72
2024/03/11 06:00:46;;;;;;;4.03;1.00;;;12.30;99.90;;;;;;5053046;28;20060;-72
2024/03/11 06:03:50;;;;;;;3.58;0.80;;;12.20;99.90;;;;;;5050927;28;20048;-72
2024/03/11 06:06:54;;;;;;;4.57;1.40;;;12.40;99.90;;;;;;5052800;28;20492;-72
2024/03/11 06:10:00;;;;;;;2.90;1.40;;;12.30;99.90;;;;;;5052603;28;20055;-72
2024/03/11 06:13:04;;;;;;;5.40;1.50;;;14.10;99.90;;;;;;5052453;28;20496;-72
2024/03/11 06:16:08;;;;;;;3.38;1.60;;;14.00;99.90;;;;;;5052625;28;20055;-73
2024/03/11 06:19:15;;;;;;;6.88;2.75;;;11.80;99.90;;;;;;5052387;28;20048;-73
2024/03/11 06:22:19;;;;;;;7.25;2.28;;;11.80;99.90;;;;;;5051512;28;20068;-72
2024/03/11 06:25:23;;;;;;;6.47;1.60;;;12.00;99.90;;;;;;5052442;28;20373;-72
2024/03/11 06:28:27;;;;;;;5.70;1.52;;;13.80;99.90;;;;;;5052521;28;20048;-73
2024/03/11 06:31:37;;;;;;;3.50;1.45;;;11.90;99.90;;;;;;5052416;28;20039;-73
2024/03/11 06:34:40;;;;;;;5.95;1.70;;;12.00;99.90;;;;;;5051010;28;20060;-73
2024/03/11 06:37:45;;;;;;;4.68;1.38;;;13.80;99.90;;;;;;5051657;28;20047;-72
2024/03/11 06:40:49;;;;;;;4.00;1.83;;;12.00;99.90;;;;;;5052311;28;20048;-71
2024/03/11 06:43:54;;;;;;;3.85;1.90;;;12.10;99.90;;;;;;5051876;28;20044;-73
2024/03/11 06:46:58;;;;;;;6.55;1.98;;;12.00;99.90;;;;;;5039550;28;20048;-73
2024/03/11 06:50:02;;;;;;;7.90;2.30;;;13.00;99.90;;;;;;5039828;28;20064;-72
2024/03/11 06:53:08;;;;;;;5.65;2.85;;;;;;;;;;5052063;28;20059;-72
2024/03/11 06:56:12;;;;;;;3.65;1.85;;;9.40;99.90;;;;;;5051804;28;20406;-72
2024/03/11 06:59:16;;;;;;;2.97;1.60;;;;;;;;;;5051640;28;20056;-72
2024/03/11 07:02:20;;;;;;;2.70;1.30;;;;;;;;;;5051597;28;20037;-71
2024/03/11 07:05:27;;;;;;;4.30;1.30;;;;;;;;;;5051568;28;20049;-73
2024/03/11 07:08:36;;;;;;;5.45;1.65;;;12.30;99.90;;;;;;5050724;28;20037;-71
2024/03/11 07:11:40;;;;;;;3.53;1.25;;;;;;;;;;5050414;28;20040;-69
2024/03/11 07:14:45;;;;;;;2.50;1.25;;;;;;;;;;5051228;28;20045;-71
2024/03/11 07:17:49;;;;;;;3.00;1.23;;;;;;;;;;5050730;28;20033;-70
2024/03/11 07:20:57;;;;;;;2.17;1.05;;;;;;;;;;5051517;28;20033;-73
2024/03/11 07:24:01;;;;;;;3.55;1.00;;;;;;;;;;5051002;28;20045;-72
2024/03/11 07:27:07;;;;;;;3.42;1.40;;;;;;;;;;5051088;28;20037;-70
2024/03/11 07:30:11;;;;;;;1.92;0.80;;;;;;;;;;5051001;28;20037;-71
2024/03/11 07:33:15;;;;;;;4.32;0.80;;;;;;;;;;5051109;28;20045;-73
2024/03/11 07:36:19;;;;;;;1.75;0.90;;;;;;;;;;5050961;28;20049;-72
2024/03/11 07:39:24;;;;;;;1.20;0.60;;;;;;;;;;5050321;28;20029;-70
2024/03/11 07:42:29;;;;;;;2.35;0.70;;;;;;;;;;5050169;28;20040;-72
2024/03/11 07:45:33;;;;;;;3.63;0.80;;;15.30;99.90;;;;;;5050243;28;20497;-69
2024/03/11 07:48:39;;;;;;;1.92;0.80;;;;;;;;;;5050757;28;20055;-70
2024/03/11 07:51:43;;;;;;;2.42;1.73;;;;;;;;;;5049825;28;20033;-69
2024/03/11 07:54:48;;;;;;;1.95;1.00;;;;;;;;;;5050480;28;20497;-72
2024/03/11 07:57:52;;;;;;;1.90;0.98;;;;;;;;;;5050578;28;20029;-71
2024/03/11 08:00:56;;;;;;;2.65;1.30;;;;;;;;;;5050693;28;20037;-72
2024/03/11 08:04:01;;;;;;;2.35;1.20;;;;;;;;;;5050407;28;20049;-68
2024/03/11 08:07:05;;;;;;;3.10;1.60;;;;;;;;;;5049902;28;20097;-70
2024/03/11 08:10:12;;;;;;;3.53;1.08;;;15.90;99.60;;;;;;5050710;28;20040;-70
2024/03/11 08:13:16;;;;;;;2.45;1.35;;;;;;;;;;5050352;28;20048;-71
2024/03/11 08:16:20;;;;;;;2.00;0.90;;;;;;;;;;5038370;28;20497;-69
2024/03/11 08:19:24;;;;;;;2.67;0.80;;;;;;;;;;5050426;28;20045;-68
2024/03/11 08:22:28;;;;;;;2.20;0.70;;;;;;;;;;5050460;28;20041;-68
2024/03/11 08:25:32;;;;;;;3.10;0.70;;;;;;;;;;5050156;28;20041;-70
2024/03/11 08:28:40;;;;;;;3.17;1.02;;;;;;;;;;5053427;28;20144;-71
2024/03/11 08:31:47;;;;;;;3.83;1.45;;;;;;;;;;5054441;28;20048;-70
2024/03/11 08:34:54;;;;;;;3.40;1.70;;;;;;;;;;5041855;28;20116;-71
2024/03/11 08:37:58;;;;;;;4.38;2.10;;;;;;;;;;5054020;28;20029;-70
2024/03/11 08:41:06;;;;;;;3.15;1.88;;;14.10;99.90;;;;;;5054097;28;20388;-70
2024/03/11 08:44:14;;;;;;;4.72;1.60;;;;;;;;;;5054078;28;20044;-70
2024/03/11 08:47:18;;;;;;;5.82;2.40;;;;;;;;;;5053991;28;20033;-70
2024/03/11 08:50:22;;;;;;;5.10;2.20;;;;;;;;;;5054119;28;20049;-72
2024/03/11 08:53:27;;;;;;;3.65;1.88;;;;;;;;;;5052571;28;20037;-71
2024/03/11 08:56:31;;;;;;;3.17;2.00;;;;;;;;;;5053978;28;20045;-72
2024/03/11 08:59:36;;;;;;;6.93;2.55;;;14.80;99.90;;;;;;5052985;28;20037;-71
2024/03/11 09:02:41;;;;;;;8.10;2.38;;;;;;;;;;5052996;28;20409;-72
2024/03/11 09:05:45;;;;;;;6.05;2.38;;;;;;;;;;5053077;28;20485;-71
2024/03/11 09:08:52;;;;;;;6.82;2.70;;;;;;;;;;5053814;28;20036;-70
2024/03/11 09:12:00;;;;;;;6.68;2.78;;;;;;;;;;5052936;28;20489;-71
2024/03/11 09:15:12;;;;;;;9.07;2.88;;;15.30;99.90;;;;;;5053498;28;20491;-71
2024/03/11 09:18:16;;;;;;;;;;;15.00;99.90;;;;;;5053935;28;20044;-70
2024/03/11 09:21:24;;;;;;;4.60;2.08;;;15.60;99.90;;;;;;5053617;28;19909;-72
2024/03/11 09:24:28;;;;;;;6.85;2.03;;;;;;;;;;5053274;28;20052;-72
2024/03/11 09:27:33;;;;;;;3.13;1.45;;;;;;;;;;5053577;28;20044;-71
2024/03/11 09:30:37;;;;;;;3.95;1.60;;;;;;;;;;5053257;28;20048;-71
2024/03/11 09:33:42;;;;;;;5.43;1.80;;;;;;;;;;5053163;28;20466;-72
2024/03/11 09:36:46;;;;;;;4.10;1.08;;;;;;;;;;5053434;28;20481;-71
2024/03/11 09:39:50;;;;;;;3.72;1.67;;;;;;;;;;5052164;28;20037;-70
2024/03/11 09:42:55;;;;;;;6.53;1.90;;;;;;;;;;5052941;28;20040;-71
2024/03/11 09:45:59;;;;;;;8.45;2.47;;;;;;;;;;5052304;28;20029;-69
2024/03/11 09:49:05;;;;;;;10.38;6.30;;;;;;;;;;5053181;28;20041;-68
2024/03/11 09:52:13;;;;;;;7.72;5.30;;;16.80;97.60;;;;;;5051744;28;20379;-70
2024/03/11 09:55:18;;;;;;;4.72;2.35;;;;;;;;;;5052704;28;20051;-71
2024/03/11 09:58:23;;;;;;;8.30;5.20;;;16.80;96.90;;;;;;5052963;28;20481;-71
2024/03/11 10:01:31;;;;;;;10.90;4.40;;;;;;;;;;5052697;28;20039;-71
2024/03/11 10:04:35;;;;;;;7.30;4.07;;;17.40;96.40;;;;;;5052662;28;20048;-71
2024/03/11 10:07:43;;;;;;;5.53;3.33;;;17.30;96.10;;;;;;5052083;28;20036;-70
2024/03/11 10:11:20;;;;;;;10.00;3.60;;;17.80;95.50;;;;;;5052784;28;20044;-72
2024/03/11 10:14:25;;;;;;;6.82;3.08;;;;;;;;;;5052310;28;20480;-71
2024/03/11 10:17:34;;;;;;;8.43;3.10;;;;;;;;;;5051633;28;20041;-70
2024/03/11 10:20:38;;;;;;;4.20;2.22;;;;;;;;;;5052573;28;20473;-70
2024/03/11 10:23:43;;;;;;;5.55;2.10;;;;;;;;;;5052145;28;20057;-71
2024/03/11 10:26:48;;;;;;;8.95;2.30;;;;;;;;;;5052297;28;20037;-70
2024/03/11 10:29:54;;;;;;;4.57;1.80;;;;;;;;;;5052153;28;20370;-72
2024/03/11 10:33:02;;;;;;;7.05;2.22;;;17.70;95.30;;;;;;5051269;28;20041;-71
2024/03/11 10:36:07;;;;;;;4.82;2.20;;;17.80;95.90;;;;;;5051811;28;20052;-71
2024/03/11 10:39:18;;;;;;;4.10;2.53;;;;;;;;;;5051546;28;20448;-70
2024/03/11 10:42:28;;;;;;;4.35;1.65;;;16.10;95.90;;;;;;5051184;28;20049;-72
2024/03/11 10:45:35;;;;;;;5.68;1.40;;;21.00;96.90;;;;;;5052330;28;20047;-70
2024/03/11 10:48:39;;;;;;;6.72;1.70;;;;;;;;;;5052094;28;20060;-70
2024/03/11 10:51:48;;;;;;;15.52;8.40;;;17.80;95.70;;;;;;5051722;28;20041;-71
2024/03/11 10:54:54;;;;;;;10.43;2.70;;;;;;;;;;5051444;28;20059;-70
2024/03/11 10:58:02;;;;;;;7.55;1.50;;;17.80;95.10;;;;;;5051109;28;20044;-71
2024/03/11 11:01:07;;;;;;;9.57;1.70;;;;;;;;;;5051791;28;20161;-72
2024/03/11 11:04:14;;;;;;;4.90;1.30;;;17.60;95.00;;;;;;5050673;28;20041;-72
2024/03/11 11:07:20;;;;;;;8.90;1.50;;;17.80;94.90;;;;;;5051672;28;20036;-72
2024/03/11 11:10:29;;;;;;;15.02;2.42;;;;;;;;;;5051430;28;20653;-71
2024/03/11 11:13:36;;;;;;;5.53;1.30;;;;;;;;;;5051388;28;20044;-72
2024/03/11 11:16:44;;;;;;;11.98;1.60;;;;;;;;;;5051324;28;20041;-70
2024/03/11 11:19:48;;;;;;;8.32;1.42;;;;;;;;;;5051298;28;20048;-70
2024/03/11 11:22:53;;;;;;;11.50;2.60;;;;;;;;;;5039012;28;20041;-68
2024/03/11 11:25:58;;;;;;;8.10;1.95;;;;;;;;;;5051441;28;20047;-71
2024/03/11 11:29:03;;;;;;;8.05;1.52;;;;;;;;;;5051034;28;20037;-71
2024/03/11 11:32:08;;;;;;;11.65;1.73;;;;;;;;;;5050254;28;20036;-70
2024/03/11 11:35:32;;;;;;;9.13;1.45;;;18.20;95.20;;;;;;5051243;28;20052;-72
2024/03/11 11:38:36;;;;;;;7.30;1.38;;;;;;;;;;5051096;28;20048;-71
2024/03/11 11:41:45;;;;;;;10.20;1.75;;;18.00;95.30;;;;;;5050292;28;20037;-74
2024/03/11 11:44:51;;;;;;;11.30;1.58;;;;;;;;;;5038912;28;20044;-71
2024/03/11 11:48:14;;;;;;;8.77;1.92;;;17.80;95.70;;;;;;5050864;28;20572;-71
2024/03/11 11:51:20;;;;;;;10.65;1.88;;;;;;;;;;5051164;28;20040;-73
2024/03/11 11:54:26;;;;;;;15.20;3.15;;;17.70;96.00;;;;;;5050965;28;20400;-72
2024/03/11 11:57:30;;;;;;;12.38;2.90;;;;;;;;;;5050281;28;20476;-72
2024/03/11 12:00:35;;;;;;;12.23;2.45;;;;;;;;;;5050447;28;20056;-74
2024/03/11 12:03:39;;;;;;;11.63;1.92;;;;;;;;;;5049064;28;20067;-71
2024/03/11 12:06:45;;;;;;;19.27;2.72;;;;;;;;;;5049977;28;20413;-72
2024/03/11 12:09:54;;;;;;;18.98;3.08;;;16.90;96.70;;;;;;5050782;28;20052;-71
2024/03/11 12:12:58;;;;;;;21.17;2.50;;;;;;;;;;5050440;28;20036;-71
2024/03/11 12:16:08;;;;;;;9.70;1.95;;;16.80;98.50;;;;;;5050195;28;20060;-72
2024/03/11 12:19:12;;;;;;;7.07;1.65;;;;;;;;;;5050549;28;20048;-72
2024/03/11 12:22:20;;;;;;;9.60;2.00;;;;;;;;;;5050350;28;20037;-72
2024/03/11 12:25:24;;;;;;;12.00;2.20;;;16.30;99.90;;;;;;5050854;28;20037;-72
2024/03/11 12:28:29;;;;;;;16.88;5.68;;;;;;;;;;5050754;28;20052;-72
2024/03/11 12:31:35;;;;;;;11.93;2.90;;;16.00;99.90;;;;;;5050653;28;20056;-72
2024/03/11 12:34:39;;;;;;;9.80;2.03;;;15.70;99.90;;;;;;5050292;28;20040;-72
2024/03/11 12:37:43;;;;;;;8.15;2.67;;;;;;;;;;5049616;28;20052;-72
2024/03/11 12:40:47;;;;;;;3.50;2.10;;;;;;;;;;5050370;28;20037;-71
2024/03/11 12:43:52;;;;;;;3.97;1.10;;;;;;;;;;5050231;28;20041;-71
2024/03/11 12:46:56;;;;;;;3.88;1.27;;;;;;;;;;5050561;28;20057;-70
2024/03/11 12:50:01;;;;;;;7.10;1.50;;;;;;;;;;5050395;28;20033;-71
2024/03/11 12:53:07;;;;;;;2.47;1.08;;;;;;;;;;5050269;28;20037;-72
2024/03/11 12:56:12;;;;;;;4.05;1.98;;;;;;;;;;5050066;28;20044;-72
2024/03/11 12:59:16;;;;;;;7.72;2.10;;;;;;;;;;5050067;28;20029;-71
2024/03/11 13:02:21;;;;;;;4.40;1.88;;;;;;;;;;5049733;28;20049;-70
2024/03/11 13:05:28;;;;;;;5.65;2.30;;;;;;;;;;5050328;28;20041;-74
2024/03/11 13:08:34;;;;;;;5.15;2.28;;;;;;;;;;5050058;28;20037;-73
2024/03/11 13:11:38;;;;;;;9.20;2.20;;;;;;;;;;5049160;28;20041;-73
2024/03/11 13:14:42;;;;;;;5.45;2.10;;;;;;;;;;5050992;28;20041;-74
2024/03/11 13:17:47;;;;;;;5.18;2.45;;;14.80;99.30;;;;;;5053572;28;20045;-73
2024/03/11 13:20:53;;;;;;;10.35;8.23;;;;;;;;;;5053343;28;20048;-71
2024/03/11 13:23:59;;;;;;;9.15;4.78;;;;;;;;;;5053377;28;20047;-69
2024/03/11 13:27:05;;;;;;;6.55;3.63;;;;;;;;;;5052600;28;20045;-71
2024/03/11 13:30:12;;;;;;;3.45;2.08;;;;;;;;;;5052893;28;20037;-69
2024/03/11 13:33:16;;;;;;;5.90;1.95;;;;;;;;;;5053078;28;20037;-72
2024/03/11 13:36:21;;;;;;;4.68;1.98;;;;;;;;;;5053229;28;20049;-70
2024/03/11 13:39:36;;;;;;;3.25;2.42;;;;;;;;;;5052900;28;20033;-72
2024/03/11 13:42:41;;;;;;;4.07;2.55;;;;;;;;;;5052988;28;20033;-73
2024/03/11 13:45:49;;;;;;;8.07;4.07;;;15.60;98.20;;;;;;5053264;28;20028;-71
2024/03/11 13:48:54;;;;;;;8.25;3.35;;;;;;;;;;5053067;28;20048;-72
2024/03/11 13:52:01;;;;;;;6.82;2.90;;;;;;;;;;5053087;28;20040;-71
2024/03/11 13:55:07;;;;;;;10.82;3.08;;;;;;;;;;5053037;28;20041;-72
2024/03/11 13:58:15;;;;;;;5.43;2.70;;;;;;;;;;5052854;28;20044;-72
2024/03/11 14:01:19;;;;;;;5.07;1.40;;;;;;;;;;5053109;28;20041;-71
2024/03/11 14:04:23;;;;;;;2.65;0.90;;;;;;;;;;5052791;28;20045;-72
2024/03/11 14:07:28;;;;;;;4.05;1.00;;;;;;;;;;5052934;28;20049;-72
2024/03/11 14:10:32;;;;;;;7.45;2.30;;;;;;;;;;5052943;28;20045;-72
2024/03/11 14:13:37;;;;;;;3.30;1.25;;;;;;;;;;5052401;28;20045;-72
2024/03/11 14:16:49;;;;;;;2.80;1.60;;;16.10;95.10;;;;;;5052704;28;20492;-72
2024/03/11 14:19:53;;;;;;;;;;;16.00;94.70;;;;;;5053138;28;20048;-72
2024/03/11 14:22:57;;;;;;;7.35;1.30;;;;;;;;;;5051490;28;20288;-72
2024/03/11 14:26:01;;;;;;;6.60;1.33;;;;;;;;;;5052263;28;20041;-72
2024/03/11 14:29:06;;;;;;;10.40;1.40;;;;;;;;;;5052324;28;20037;-72
2024/03/11 14:32:10;;;;;;;13.23;4.95;;;;;;;;;;5052231;28;20044;-71
2024/03/11 14:35:15;;;;;;;9.98;2.22;;;16.10;97.10;;;;;;5051172;28;20405;-71
2024/03/11 14:38:22;;;;;;;7.57;2.15;;;;;;;;;;5052042;28;20500;-71
2024/03/11 14:41:32;;;;;;;10.82;2.63;;;;;;;;;;5052165;28;20037;-71
2024/03/11 14:44:36;;;;;;;9.35;1.58;;;;;;;;;;5052104;28;20047;-70
2024/03/11 14:47:45;;;;;;;13.88;2.20;;;15.10;97.10;;;;;;5051828;28;20036;-69
2024/03/11 14:50:49;;;;;;;9.50;2.13;;;;;;;;;;5039363;28;20245;-70
2024/03/11 14:53:55;;;;;;;13.23;1.88;;;15.80;97.30;;;;;;5051626;28;20393;-72
2024/03/11 14:57:01;;;;;;;17.83;2.22;;;;;;;;;;5051605;28;20044;-69
2024/03/11 15:00:11;;;;;;;10.63;2.20;;;16.10;97.40;;;;;;5051797;28;20052;-70
2024/03/11 15:03:17;;;;;;;10.98;2.47;;;16.10;97.80;;;;;;5051267;28;20123;-70
2024/03/11 15:06:21;;;;;;;12.20;3.20;;;;;;;;;;5050550;28;20405;-73
2024/03/11 15:09:27;;;;;;;15.60;2.70;;;;;;;;;;5051670;28;20385;-71
2024/03/11 15:12:34;;;;;;;14.52;2.17;;;;;;;;;;5051404;28;20052;-69
2024/03/11 15:15:41;;;;;;;8.95;2.50;;;;;;;;;;5051477;28;20044;-70
2024/03/11 15:18:47;;;;;;;9.43;1.90;;;;;;;;;;5050680;28;20615;-70
2024/03/11 15:21:51;;;;;;;12.02;2.00;;;;;;;;;;5051059;28;20040;-69
2024/03/11 15:24:55;;;;;;;8.73;1.80;;;;;;;;;;5051267;28;20047;-69
2024/03/11 15:27:59;;;;;;;19.08;2.25;;;;;;;;;;5050300;28;20029;-70
2024/03/11 15:31:04;;;;;;;11.38;2.17;;;;;;;;;;5050967;28;20043;-69
2024/03/11 15:34:08;;;;;;;17.05;3.15;;;;;;;;;;5050328;28;20116;-69
2024/03/11 15:37:12;;;;;;;14.88;1.95;;;;;;;;;;5050491;28;20057;-71
2024/03/11 15:40:17;;;;;;;10.40;1.90;;;;;;;;;;5038944;28;20396;-68
2024/03/11 15:43:21;;;;;;;13.10;2.03;;;;;;;;;;5050750;28;20405;-69
2024/03/11 15:46:29;;;;;;;9.13;2.13;;;;;;;;;;5050848;28;20040;-71
2024/03/11 15:49:33;;;;;;;12.35;2.10;;;;;;;;;;5051038;28;20041;-71
2024/03/11 15:52:38;;;;;;;11.90;2.50;;;;;;;;;;5050838;28;20060;-72
2024/03/11 15:55:45;;;;;;;13.15;3.65;;;;;;;;;;5050647;28;20048;-72
2024/03/11 15:58:49;;;;;;;10.95;1.55;;;;;;;;;;5050678;28;20040;-71
2024/03/11 16:01:56;;;;;;;8.50;1.90;;;;;;;;;;5050424;28;20052;-74
2024/03/11 16:05:00;;;;;;;16.55;3.72;;;;;;;;;;5050879;28;20053;-72
2024/03/11 16:08:05;;;;;;;11.02;2.25;;;;;;;;;;5050527;28;20056;-72
2024/03/11 16:11:09;;;;;;;20.55;2.80;;;;;;;;;;5049971;28;20056;-72
2024/03/11 16:14:14;;;;;;;8.60;2.00;;;16.10;99.50;;;;;;5050816;28;20388;-72
2024/03/11 16:17:20;;;;;;;12.25;3.10;;;;;;;;;;5050803;28;20052;-72
2024/03/11 16:20:25;;;;;;;14.43;3.10;;;;;;;;;;5050664;28;20044;-72
2024/03/11 16:23:31;;;;;;;13.13;2.97;;;;;;;;;;5050703;28;20497;-75
2024/03/11 16:26:35;;;;;;;12.75;2.63;;;;;;;;;;5050398;28;20036;-72
2024/03/11 16:29:41;;;;;;;12.23;3.67;;;14.50;99.90;;;;;;5050587;28;20056;-72
2024/03/11 16:32:46;;;;;;;15.90;3.97;;;;;;;;;;5050419;28;20044;-72
2024/03/11 16:35:50;;;;;;;12.00;3.60;;;;;;;;;;5050433;28;20055;-73
2024/03/11 16:38:54;;;;;;;17.75;3.90;;;;;;;;;;5038255;28;20044;-72
2024/03/11 16:41:59;;;;;;;8.32;1.83;;;;;;;;;;5049506;28;20484;-74
2024/03/11 16:45:05;;;;;;;6.22;2.05;;;;;;;;;;5050305;28;20045;-74
2024/03/11 16:48:10;;;;;;;4.85;2.05;;;14.70;99.40;;;;;;5050750;28;20033;-71
2024/03/11 16:51:17;;;;;;;7.82;2.10;;;14.70;99.80;;;;;;5054314;28;20040;-72
2024/03/11 16:54:23;;;;;;;6.78;2.60;;;;;;;;;;5054377;28;20048;-71
2024/03/11 16:57:27;;;;;;;11.70;4.93;;;;;;;;;;5054111;28;20052;-70
2024/03/11 17:00:34;;;;;;;11.50;4.25;;;;;;;;;;5054116;28;20506;-71
2024/03/11 17:03:38;;;;;;;14.45;5.18;;;;;;;;;;5053587;28;20056;-71
2024/03/11 17:06:43;;;;;;;10.65;3.80;;;;;;;;;;5053696;28;20036;-69
2024/03/11 17:09:48;;;;;;;8.57;3.03;;;;;;;;;;5053024;28;20060;-69
2024/03/11 17:12:52;;;;;;;8.80;3.28;;;;;;;;;;5053798;28;20052;-72
2024/03/11 17:15:57;;;;;;;11.50;4.53;;;;;;;;;;5041481;28;20041;-71
2024/03/11 17:19:01;;;;;;;12.82;5.60;;;;;;;;;;5053759;28;20048;-71
2024/03/11 17:22:07;;;;;;;13.18;6.47;;;;;;;;;;5054434;28;20118;-71
2024/03/11 17:25:11;;;;;;;18.20;9.88;;;;;;;;;;5053002;28;20052;-71
2024/03/11 17:28:16;;;;;;;14.68;7.35;;;;;;;;;;5052945;28;20055;-71
2024/03/11 17:31:23;;;;;;;11.73;4.72;;;;;;;;;;5053496;28;20044;-71
2024/03/11 17:34:27;;;;;;;15.30;4.38;;;;;;;;;;5053583;28;20044;-69
2024/03/11 17:37:33;;;;;;;10.55;3.78;;;;;;;;;;5053063;28;20052;-69
2024/03/11 17:40:37;;;;;;;11.93;3.78;;;14.00;99.90;;;;;;5053288;28;20040;-71
2024/03/11 17:43:42;;;;;;;10.95;3.85;;;14.00;99.90;;;;;;5052960;28;20041;-72
2024/03/11 17:46:46;;;;;;;10.88;4.82;;;;;;;;;;5052886;28;20040;-71